createdAt,value
2022-11-15T00:01:16.447Z,3.17
2022-11-15T00:03:43.407Z,2.33
2022-11-15T00:06:10.760Z,2.33
2022-11-15T00:08:37.646Z,2.47
2022-11-15T00:11:04.554Z,2.45
2022-11-15T00:13:31.604Z,3.33
2022-11-15T00:16:00.554Z,2.20
2022-11-15T00:18:28.578Z,1.85
2022-11-15T00:20:55.962Z,2.10
2022-11-15T00:23:23.052Z,2.38
2022-11-15T00:25:57.575Z,1.70
2022-11-15T00:28:24.889Z,1.90
2022-11-15T00:30:51.980Z,1.65
2022-11-15T00:33:19.286Z,1.60
2022-11-15T00:35:46.228Z,1.45
2022-11-15T00:38:13.122Z,1.60
2022-11-15T00:40:39.889Z,1.60
2022-11-15T00:43:06.725Z,1.50
2022-11-15T00:45:34.895Z,1.20
2022-11-15T00:48:01.682Z,1.27
2022-11-15T00:50:28.546Z,1.25
2022-11-15T00:52:55.382Z,0.98
2022-11-15T00:55:22.189Z,1.10
2022-11-15T00:57:49.039Z,1.00
2022-11-15T01:00:16.183Z,0.90
2022-11-15T01:02:43.105Z,1.20
2022-11-15T01:05:10.810Z,1.27
2022-11-15T01:07:37.713Z,1.48
2022-11-15T01:10:05.901Z,1.30
2022-11-15T01:12:33.145Z,1.88
2022-11-15T01:14:59.985Z,1.40
2022-11-15T01:17:26.758Z,1.38
2022-11-15T01:19:53.859Z,1.70
2022-11-15T01:22:20.758Z,1.55
2022-11-15T01:24:47.705Z,1.27
2022-11-15T01:27:14.602Z,1.35
2022-11-15T01:29:41.518Z,1.52
2022-11-15T01:32:08.548Z,1.50
2022-11-15T01:34:35.514Z,1.60
2022-11-15T01:37:02.871Z,1.80
2022-11-15T01:39:29.710Z,1.67
2022-11-15T01:41:56.617Z,1.75
2022-11-15T01:44:32.696Z,1.60
2022-11-15T01:47:02.840Z,1.20
2022-11-15T01:49:33.676Z,1.33
2022-11-15T01:52:02.835Z,1.30
2022-11-15T01:54:30.263Z,0.95
2022-11-15T01:57:05.050Z,1.15
2022-11-15T01:59:32.494Z,1.13
2022-11-15T02:01:59.842Z,1.15
2022-11-15T02:04:32.977Z,1.48
2022-11-15T02:07:04.565Z,1.50
2022-11-15T02:09:31.503Z,1.33
2022-11-15T02:12:00.419Z,1.40
2022-11-15T02:14:29.835Z,1.05
2022-11-15T02:16:59.813Z,1.70
2022-11-15T02:19:29.501Z,1.38
2022-11-15T02:22:15.185Z,1.42
2022-11-15T02:25:00.521Z,1.30
2022-11-15T02:30:22.614Z,1.63
2022-11-15T02:32:58.615Z,1.83
2022-11-15T02:35:33.273Z,2.10
2022-11-15T02:38:22.782Z,2.20
2022-11-15T02:40:54.969Z,2.00
2022-11-15T02:43:53.082Z,2.13
2022-11-15T02:46:49.067Z,2.03
2022-11-15T02:49:16.728Z,1.80
2022-11-15T02:51:47.872Z,2.10
2022-11-15T02:54:21.982Z,2.00
2022-11-15T02:56:50.829Z,1.70
2022-11-15T02:59:35.675Z,1.45
2022-11-15T03:02:26.397Z,1.80
2022-11-15T03:05:18.065Z,2.20
2022-11-15T03:08:02.556Z,2.20
2022-11-15T03:10:29.526Z,2.33
2022-11-15T03:13:31.820Z,2.10
2022-11-15T03:16:07.681Z,2.60
2022-11-15T03:18:42.777Z,2.08
2022-11-15T03:23:39.421Z,1.73
2022-11-15T03:26:10.679Z,1.90
2022-11-15T03:28:43.892Z,2.13
2022-11-15T03:31:32.471Z,1.98
2022-11-15T03:34:02.748Z,1.75
2022-11-15T03:36:34.752Z,1.73
2022-11-15T03:39:06.673Z,2.00
2022-11-15T03:41:51.869Z,1.80
2022-11-15T03:44:44.768Z,1.58
2022-11-15T03:47:17.735Z,2.13
2022-11-15T03:49:51.278Z,2.15
2022-11-15T03:52:22.511Z,2.00
2022-11-15T03:54:55.648Z,1.95
2022-11-15T03:57:22.694Z,1.77
2022-11-15T03:59:49.625Z,2.20
2022-11-15T04:02:16.566Z,2.00
2022-11-15T04:04:43.485Z,2.00
2022-11-15T04:07:10.459Z,2.20
2022-11-15T04:09:56.653Z,2.05
2022-11-15T04:12:32.004Z,1.98
2022-11-15T04:15:13.423Z,2.30
2022-11-15T04:17:46.355Z,2.10
2022-11-15T04:20:41.075Z,2.03
2022-11-15T04:23:33.672Z,2.17
2022-11-15T04:26:03.609Z,1.98
2022-11-15T04:28:30.626Z,4.75
2022-11-15T04:30:57.654Z,2.30
2022-11-15T04:33:24.565Z,2.30
2022-11-15T04:36:10.157Z,1.83
2022-11-15T04:38:38.675Z,2.17
2022-11-15T04:41:05.625Z,2.13
2022-11-15T04:43:32.782Z,2.30
2022-11-15T04:45:59.770Z,2.22
2022-11-15T04:48:26.642Z,2.60
2022-11-15T04:50:53.464Z,2.47
2022-11-15T04:53:20.315Z,2.35
2022-11-15T04:55:47.870Z,2.30
2022-11-15T04:58:14.899Z,2.58
2022-11-15T05:00:41.826Z,2.72
2022-11-15T05:03:29.177Z,2.78
2022-11-15T05:05:56.208Z,3.15
2022-11-15T05:08:22.977Z,2.53
2022-11-15T05:10:49.688Z,2.67
2022-11-15T05:13:16.333Z,4.15
2022-11-15T05:15:43.147Z,3.72
2022-11-15T05:18:10.410Z,3.10
2022-11-15T05:20:37.126Z,3.30
2022-11-15T05:23:03.826Z,2.88
2022-11-15T05:25:30.570Z,3.40
2022-11-15T05:27:57.374Z,3.33
2022-11-15T05:30:24.343Z,3.58
2022-11-15T05:32:51.903Z,3.72
2022-11-15T05:35:29.411Z,4.43
2022-11-15T05:37:56.279Z,3.05
2022-11-15T05:40:23.139Z,3.55
2022-11-15T05:42:50.083Z,3.15
2022-11-15T05:45:19.313Z,3.70
2022-11-15T05:47:51.430Z,3.40
2022-11-15T05:50:19.813Z,3.65
2022-11-15T05:52:47.546Z,3.13
2022-11-15T05:55:15.286Z,3.28
2022-11-15T05:57:42.583Z,4.63
2022-11-15T06:00:10.466Z,3.35
2022-11-15T06:02:37.250Z,3.00
2022-11-15T06:05:04.387Z,2.78
2022-11-15T06:07:32.123Z,3.10
2022-11-15T06:09:58.928Z,3.00
2022-11-15T06:12:26.036Z,3.00
2022-11-15T06:14:53.164Z,2.80
2022-11-15T06:17:19.890Z,2.53
2022-11-15T06:19:46.714Z,2.67
2022-11-15T06:22:13.544Z,2.38
2022-11-15T06:24:40.446Z,2.20
2022-11-15T06:27:07.092Z,2.25
2022-11-15T06:29:33.976Z,2.10
2022-11-15T06:32:00.934Z,2.28
2022-11-15T06:34:27.862Z,2.55
2022-11-15T06:36:54.674Z,2.17
2022-11-15T06:39:21.506Z,2.40
2022-11-15T06:41:48.387Z,2.22
2022-11-15T06:44:15.233Z,1.70
2022-11-15T06:46:42.037Z,2.15
2022-11-15T06:49:09.849Z,2.15
2022-11-15T06:51:36.886Z,2.13
2022-11-15T06:54:03.947Z,1.85
2022-11-15T06:56:30.662Z,1.90
2022-11-15T06:58:57.514Z,2.97
2022-11-15T07:01:24.582Z,1.63
2022-11-15T07:03:51.393Z,1.50
2022-11-15T07:06:18.150Z,1.38
2022-11-15T07:08:45.384Z,1.40
2022-11-15T07:11:12.442Z,1.40
2022-11-15T07:13:39.310Z,1.50
2022-11-15T07:16:08.677Z,1.33
2022-11-15T07:18:40.281Z,1.60
2022-11-15T07:21:10.847Z,1.45
2022-11-15T07:23:39.312Z,2.03
2022-11-15T07:26:06.725Z,1.52
2022-11-15T07:28:33.921Z,2.03
2022-11-15T07:31:04.965Z,1.88
2022-11-15T07:33:32.395Z,1.70
2022-11-15T07:36:03.759Z,1.20
2022-11-15T07:38:31.004Z,1.50
2022-11-15T07:41:04.546Z,1.20
2022-11-15T07:43:34.092Z,1.45
2022-11-15T07:46:10.473Z,1.35
2022-11-15T07:48:44.563Z,1.38
2022-11-15T07:51:17.704Z,1.50
2022-11-15T07:53:45.028Z,1.52
2022-11-15T07:56:12.909Z,1.10
2022-11-15T07:58:39.790Z,1.20
2022-11-15T08:01:09.218Z,1.23
2022-11-15T08:03:36.778Z,1.35
2022-11-15T08:06:05.046Z,1.88
2022-11-15T08:08:31.908Z,1.42
2022-11-15T08:10:59.712Z,1.65
2022-11-15T08:13:26.659Z,1.10
2022-11-15T08:15:57.630Z,1.40
2022-11-15T08:18:24.748Z,1.02
2022-11-15T08:20:51.550Z,1.35
2022-11-15T08:23:18.457Z,0.90
2022-11-15T08:25:45.297Z,1.95
2022-11-15T08:28:12.359Z,1.10
2022-11-15T08:30:43.239Z,1.30
2022-11-15T08:33:15.096Z,1.20
2022-11-15T08:35:43.456Z,1.48
2022-11-15T08:38:10.743Z,1.42
2022-11-15T08:40:38.073Z,1.60
2022-11-15T08:43:05.339Z,1.80
2022-11-15T08:45:32.379Z,1.60
2022-11-15T08:47:59.279Z,1.55
2022-11-15T08:50:26.123Z,1.30
2022-11-15T08:52:52.974Z,1.80
2022-11-15T08:55:24.327Z,1.40
2022-11-15T08:57:51.475Z,1.55
2022-11-15T09:00:18.714Z,1.38
2022-11-15T09:02:45.613Z,1.25
2022-11-15T09:05:12.206Z,1.42
2022-11-15T09:07:39.073Z,1.30
2022-11-15T09:10:06.115Z,1.58
2022-11-15T09:12:33.022Z,1.23
2022-11-15T09:15:00.160Z,1.60
2022-11-15T09:17:26.866Z,1.20
2022-11-15T09:19:53.764Z,1.48
2022-11-15T09:22:20.677Z,1.10
2022-11-15T09:24:47.542Z,1.27
2022-11-15T09:27:14.460Z,1.13
2022-11-15T09:29:41.128Z,1.10
2022-11-15T09:32:08.017Z,1.20
2022-11-15T09:34:34.814Z,1.75
2022-11-15T09:37:01.717Z,1.30
2022-11-15T09:39:28.482Z,1.30
2022-11-15T09:42:17.102Z,1.20
2022-11-15T09:45:01.978Z,1.08
2022-11-15T09:47:47.488Z,1.17
2022-11-15T09:50:29.487Z,1.23
2022-11-15T09:52:56.932Z,1.27
2022-11-15T09:55:40.928Z,1.40
2022-11-15T09:58:30.271Z,1.55
2022-11-15T10:01:02.214Z,1.10
2022-11-15T10:03:35.085Z,1.00
2022-11-15T10:06:05.362Z,1.30
2022-11-15T10:08:32.417Z,0.90
2022-11-15T10:13:57.754Z,1.20
2022-11-15T10:16:53.679Z,1.70
2022-11-15T10:22:20.145Z,1.02
2022-11-15T10:24:49.078Z,0.80
2022-11-15T10:27:20.949Z,1.40
2022-11-15T10:29:51.651Z,1.10
2022-11-15T10:32:21.875Z,1.35
2022-11-15T10:34:50.679Z,1.50
2022-11-15T10:37:30.804Z,1.33
2022-11-15T10:40:15.613Z,1.13
2022-11-15T10:42:42.466Z,0.85
2022-11-15T10:45:28.249Z,1.10
2022-11-15T10:47:55.215Z,1.20
2022-11-15T10:50:33.777Z,0.90
2022-11-15T10:53:03.816Z,1.50
2022-11-15T10:55:34.748Z,1.40
2022-11-15T10:58:20.953Z,1.23
2022-11-15T11:00:48.039Z,1.13
2022-11-15T11:03:26.962Z,1.10
2022-11-15T11:06:30.833Z,1.13
2022-11-15T11:09:03.226Z,1.23
2022-11-15T11:11:50.387Z,0.90
2022-11-15T11:14:29.142Z,1.60
2022-11-15T11:17:05.035Z,1.20
2022-11-15T11:19:37.912Z,0.88
2022-11-15T11:22:17.179Z,0.70
2022-11-15T11:24:58.109Z,0.80
2022-11-15T11:27:46.274Z,1.05
2022-11-15T11:30:24.794Z,1.10
2022-11-15T11:33:05.243Z,1.30
2022-11-15T11:36:05.211Z,0.88
2022-11-15T11:38:41.096Z,0.75
2022-11-15T11:41:13.894Z,1.45
2022-11-15T11:44:11.346Z,0.75
2022-11-15T11:46:55.073Z,0.75
2022-11-15T11:49:52.292Z,0.68
2022-11-15T11:52:24.742Z,0.77
2022-11-15T11:55:13.250Z,1.45
2022-11-15T11:57:43.911Z,0.90
2022-11-15T12:00:19.943Z,0.80
2022-11-15T12:03:04.315Z,0.80
2022-11-15T12:05:43.100Z,1.25
2022-11-15T12:08:21.222Z,0.90
2022-11-15T12:10:54.430Z,1.00
2022-11-15T12:13:26.921Z,0.65
2022-11-15T12:16:09.049Z,1.05
2022-11-15T12:18:39.361Z,0.80
2022-11-15T12:21:16.652Z,0.90
2022-11-15T12:23:55.368Z,1.02
2022-11-15T12:26:29.515Z,0.95
2022-11-15T12:29:07.508Z,0.83
2022-11-15T12:31:36.881Z,0.82
2022-11-15T12:34:25.320Z,0.90
2022-11-15T12:36:53.021Z,1.08
2022-11-15T12:39:20.648Z,1.80
2022-11-15T12:41:56.635Z,1.40
2022-11-15T12:44:32.623Z,1.17
2022-11-15T12:47:02.553Z,1.17
2022-11-15T12:49:29.343Z,1.17
2022-11-15T12:51:58.890Z,1.00
2022-11-15T12:54:25.658Z,1.13
2022-11-15T12:57:04.630Z,0.80
2022-11-15T12:59:50.170Z,1.00
2022-11-15T13:04:50.349Z,0.95
2022-11-15T13:07:35.924Z,0.82
2022-11-15T13:10:15.281Z,1.23
2022-11-15T13:12:45.323Z,1.55
2022-11-15T13:15:15.184Z,1.10
2022-11-15T13:17:51.986Z,1.20
2022-11-15T13:20:23.644Z,1.08
2022-11-15T13:23:05.385Z,0.98
2022-11-15T13:25:40.975Z,1.23
2022-11-15T13:28:21.358Z,3.40
2022-11-15T13:30:48.022Z,1.08
2022-11-15T13:33:19.177Z,1.20
2022-11-15T13:35:53.257Z,0.90
2022-11-15T13:38:27.977Z,2.72
2022-11-15T13:40:55.734Z,1.13
2022-11-15T13:43:22.461Z,1.20
2022-11-15T13:46:08.703Z,0.70
2022-11-15T13:48:35.975Z,1.20
2022-11-15T13:51:25.966Z,1.00
2022-11-15T13:54:16.089Z,1.48
2022-11-15T13:56:49.158Z,1.70
2022-11-15T13:59:22.369Z,1.00
2022-11-15T14:01:51.840Z,0.93
2022-11-15T14:04:23.064Z,1.10
2022-11-15T14:06:54.383Z,1.35
2022-11-15T14:09:29.949Z,2.47
2022-11-15T14:11:57.892Z,1.00
2022-11-15T14:14:26.860Z,1.52
2022-11-15T14:16:56.339Z,2.65
2022-11-15T14:19:26.050Z,1.63
2022-11-15T14:22:16.364Z,1.20
2022-11-15T14:24:48.865Z,1.40
2022-11-15T14:27:27.612Z,1.00
2022-11-15T14:29:54.931Z,1.17
2022-11-15T14:32:27.837Z,1.05
2022-11-15T14:35:03.514Z,1.50
2022-11-15T14:37:35.678Z,1.20
2022-11-15T14:40:04.414Z,1.55
2022-11-15T14:42:31.550Z,1.58
2022-11-15T14:44:59.073Z,1.52
2022-11-15T14:47:25.909Z,1.33
2022-11-15T14:49:52.870Z,2.65
2022-11-15T14:52:34.561Z,2.05
2022-11-15T14:55:03.284Z,1.30
2022-11-15T14:57:31.378Z,1.40
2022-11-15T14:59:58.085Z,1.50
2022-11-15T15:02:26.677Z,1.33
2022-11-15T15:04:54.364Z,1.10
2022-11-15T15:07:21.588Z,1.33
2022-11-15T15:09:48.565Z,1.25
2022-11-15T15:12:20.822Z,1.20
2022-11-15T15:14:49.283Z,1.50
2022-11-15T15:17:16.791Z,1.33
2022-11-15T15:19:44.427Z,1.70
2022-11-15T15:22:19.574Z,1.50
2022-11-15T15:24:47.318Z,1.80
2022-11-15T15:27:14.728Z,1.42
2022-11-15T15:29:42.828Z,1.50
2022-11-15T15:32:11.384Z,1.50
2022-11-15T15:34:38.321Z,1.63
2022-11-15T15:37:26.355Z,1.70
2022-11-15T15:39:54.851Z,1.30
2022-11-15T15:42:22.776Z,1.60
2022-11-15T15:44:50.893Z,2.00
2022-11-15T15:47:20.819Z,1.75
2022-11-15T15:49:48.782Z,1.33
2022-11-15T15:52:15.606Z,1.80
2022-11-15T15:54:42.949Z,1.30
2022-11-15T15:57:13.451Z,1.63
2022-11-15T15:59:40.681Z,1.98
2022-11-15T16:02:09.862Z,1.85
2022-11-15T16:04:36.761Z,1.65
2022-11-15T16:07:05.024Z,1.13
2022-11-15T16:09:50.770Z,1.33
2022-11-15T16:12:18.367Z,1.50
2022-11-15T16:14:45.209Z,1.30
2022-11-15T16:17:36.843Z,1.48
2022-11-15T16:20:04.778Z,1.55
2022-11-15T16:22:31.720Z,2.38
2022-11-15T16:24:58.978Z,1.38
2022-11-15T16:27:25.982Z,1.23
2022-11-15T16:29:52.890Z,1.15
2022-11-15T16:32:19.611Z,1.30
2022-11-15T16:34:49.276Z,1.40
2022-11-15T16:37:25.577Z,1.83
2022-11-15T16:39:55.934Z,1.08
2022-11-15T16:42:25.197Z,1.27
2022-11-15T16:44:55.038Z,1.13
2022-11-15T16:47:23.029Z,1.45
2022-11-15T16:49:49.776Z,1.30
2022-11-15T16:52:21.177Z,1.30
2022-11-15T16:54:48.312Z,1.05
2022-11-15T16:57:16.637Z,1.02
2022-11-15T16:59:43.427Z,1.10
2022-11-15T17:02:13.048Z,1.30
2022-11-15T17:04:40.024Z,1.52
2022-11-15T17:07:06.983Z,1.15
2022-11-15T17:09:34.549Z,1.10
2022-11-15T17:12:01.523Z,2.33
2022-11-15T17:14:28.385Z,1.20
2022-11-15T17:16:58.030Z,1.20
2022-11-15T17:19:24.894Z,1.58
2022-11-15T17:21:51.882Z,1.92
2022-11-15T17:24:21.063Z,1.05
2022-11-15T17:26:48.092Z,1.23
2022-11-15T17:29:15.146Z,1.30
2022-11-15T17:31:41.908Z,1.58
2022-11-15T17:34:08.732Z,2.17
2022-11-15T17:36:35.814Z,1.20
2022-11-15T17:39:03.922Z,1.10
2022-11-15T17:41:31.254Z,1.30
2022-11-15T17:44:00.135Z,1.30
2022-11-15T17:46:28.703Z,1.80
2022-11-15T17:48:57.355Z,1.30
2022-11-15T17:51:24.396Z,1.10
2022-11-15T17:53:52.121Z,1.33
2022-11-15T17:56:24.333Z,1.23
2022-11-15T17:58:56.757Z,1.30
2022-11-15T18:01:32.073Z,1.30
2022-11-15T18:04:00.797Z,1.08
2022-11-15T18:06:33.062Z,1.77
2022-11-15T18:09:00.915Z,1.20
2022-11-15T18:11:33.275Z,1.35
2022-11-15T18:14:05.155Z,1.33
2022-11-15T18:16:34.723Z,1.08
2022-11-15T18:19:02.168Z,1.48
2022-11-15T18:21:33.950Z,1.10
2022-11-15T18:24:02.012Z,2.22
2022-11-15T18:26:30.771Z,1.25
2022-11-15T18:29:04.343Z,1.02
2022-11-15T18:31:32.261Z,1.30
2022-11-15T18:34:00.408Z,1.13
2022-11-15T18:36:29.982Z,1.98
2022-11-15T18:38:58.492Z,1.20
2022-11-15T18:41:28.610Z,1.88
2022-11-15T18:44:00.982Z,1.13
2022-11-15T18:46:30.106Z,1.10
2022-11-15T18:48:59.483Z,1.23
2022-11-15T18:51:30.101Z,1.20
2022-11-15T18:53:59.403Z,1.17
2022-11-15T18:56:28.074Z,1.02
2022-11-15T18:58:57.324Z,1.13
2022-11-15T19:01:36.222Z,1.00
2022-11-15T19:04:11.851Z,1.10
2022-11-15T19:06:51.278Z,0.88
2022-11-15T19:09:19.449Z,0.80
2022-11-15T19:11:47.831Z,1.48
2022-11-15T19:14:17.442Z,1.77
2022-11-15T19:16:52.150Z,0.95
2022-11-15T19:19:29.642Z,1.50
2022-11-15T19:21:57.742Z,1.08
2022-11-15T19:24:26.505Z,1.10
2022-11-15T19:26:53.445Z,1.40
2022-11-15T19:29:20.201Z,1.00
2022-11-15T19:31:48.786Z,1.10
2022-11-15T19:34:15.789Z,1.25
2022-11-15T19:36:44.508Z,1.30
2022-11-15T19:39:13.459Z,1.10
2022-11-15T19:41:42.605Z,1.10
2022-11-15T19:44:10.734Z,1.02
2022-11-15T19:46:40.788Z,1.75
2022-11-15T19:49:11.548Z,1.23
2022-11-15T19:51:39.534Z,1.10
2022-11-15T19:54:08.924Z,1.23
2022-11-15T19:56:36.735Z,1.25
2022-11-15T19:59:05.267Z,2.17
2022-11-15T20:01:36.502Z,1.23
2022-11-15T20:04:03.844Z,1.02
2022-11-15T20:06:36.312Z,1.15
2022-11-15T20:09:03.763Z,1.80
2022-11-15T20:11:30.658Z,0.80
2022-11-15T20:13:59.758Z,1.02
2022-11-15T20:16:26.998Z,1.30
2022-11-15T20:18:54.334Z,1.20
2022-11-15T20:21:22.288Z,1.42
2022-11-15T20:23:51.124Z,2.05
2022-11-15T20:26:19.668Z,1.80
2022-11-15T20:28:48.475Z,1.08
2022-11-15T20:31:16.320Z,1.02
2022-11-15T20:33:43.162Z,1.10
2022-11-15T20:36:13.521Z,1.00
2022-11-15T20:38:40.676Z,1.27
2022-11-15T20:41:08.213Z,1.00
2022-11-15T20:43:35.265Z,1.58
2022-11-15T20:46:02.172Z,0.90
2022-11-15T20:48:29.090Z,1.20
2022-11-15T20:51:16.855Z,1.30
2022-11-15T20:53:47.777Z,0.98
2022-11-15T20:56:17.519Z,0.90
2022-11-15T20:58:45.959Z,0.75
2022-11-15T21:01:15.392Z,1.33
2022-11-15T21:03:42.718Z,1.20
2022-11-15T21:06:10.560Z,1.00
2022-11-15T21:09:01.081Z,1.23
2022-11-15T21:11:46.040Z,0.90
2022-11-15T21:14:12.933Z,1.05
2022-11-15T21:16:39.826Z,1.52
2022-11-15T21:19:07.174Z,1.23
2022-11-15T21:21:35.402Z,0.80
2022-11-15T21:24:07.025Z,0.80
2022-11-15T21:26:34.938Z,1.38
2022-11-15T21:29:01.972Z,1.02
2022-11-15T21:31:29.301Z,0.82
2022-11-15T21:33:56.072Z,0.80
2022-11-15T21:36:22.843Z,1.40
2022-11-15T21:38:49.632Z,1.02
2022-11-15T21:41:16.540Z,0.80
2022-11-15T21:43:43.449Z,1.10
2022-11-15T21:46:10.118Z,1.38
2022-11-15T21:48:37.706Z,1.08
2022-11-15T21:51:10.331Z,1.23
2022-11-15T21:53:37.197Z,1.00
2022-11-15T21:56:04.490Z,1.10
2022-11-15T21:58:31.789Z,1.00
2022-11-15T22:01:18.418Z,1.05
2022-11-15T22:03:45.881Z,1.05
2022-11-15T22:06:17.446Z,0.95
2022-11-15T22:08:45.674Z,0.80
2022-11-15T22:11:12.978Z,1.27
2022-11-15T22:13:39.749Z,1.00
2022-11-15T22:16:08.334Z,1.20
2022-11-15T22:18:35.691Z,1.42
2022-11-15T22:21:15.014Z,0.95
2022-11-15T22:23:42.758Z,1.10
2022-11-15T22:26:14.370Z,1.38
2022-11-15T22:28:41.794Z,1.00
2022-11-15T22:31:09.562Z,0.88
2022-11-15T22:33:37.149Z,0.70
2022-11-15T22:36:05.642Z,0.60
2022-11-15T22:38:33.096Z,0.75
2022-11-15T22:41:00.626Z,0.70
2022-11-15T22:43:27.761Z,0.85
2022-11-15T22:45:55.901Z,0.82
2022-11-15T22:48:25.381Z,0.80
2022-11-15T22:50:52.360Z,0.90
2022-11-15T22:53:19.566Z,0.73
2022-11-15T22:56:01.309Z,0.55
2022-11-15T22:58:30.439Z,0.60
2022-11-15T23:00:59.889Z,0.85
2022-11-15T23:03:27.952Z,0.60
2022-11-15T23:05:55.455Z,0.70
2022-11-15T23:08:23.775Z,0.65
2022-11-15T23:11:09.145Z,0.63
2022-11-15T23:16:23.540Z,0.70
2022-11-15T23:18:55.217Z,0.90
2022-11-15T23:21:45.617Z,0.70
2022-11-15T23:24:14.028Z,0.47
2022-11-15T23:26:41.898Z,0.60
2022-11-15T23:29:10.748Z,0.80
2022-11-15T23:32:01.507Z,0.60
2022-11-15T23:34:30.707Z,0.60
2022-11-15T23:36:57.920Z,0.68
2022-11-15T23:39:25.143Z,0.50
2022-11-15T23:41:51.896Z,0.65
2022-11-15T23:44:18.742Z,0.60
2022-11-15T23:46:45.484Z,0.82
2022-11-15T23:49:12.462Z,0.68
2022-11-15T23:51:39.230Z,0.70
2022-11-15T23:54:07.096Z,0.47
2022-11-15T23:56:34.786Z,0.47
2022-11-15T23:59:01.612Z,0.40
